Time;durP1;ratioP1;P1;durP2;ratioP2;P2;SDS_P1;SDS_P2;PMS_P1;PMS_P2;Temp;Humidity;BMP_temperature;BMP_pressure;BME280_temperature;BME280_humidity;BME280_pressure;Samples;Min_cycle;Max_cycle;Signal;HPM_P1;HPM_P2
2023/06/15 00:00:55;;;;;;;4.07;3.20;;;;;;;;;;5022286;28;20052;-82
2023/06/15 00:03:21;;;;;;;6.18;3.63;;;;;;;;;;5024743;28;20441;-83
2023/06/15 00:05:47;;;;;;;5.55;3.40;;;;;;;;;;5010764;28;20082;-83
2023/06/15 00:08:13;;;;;;;5.75;3.55;;;;;;;;;;5025612;28;20053;-82
2023/06/15 00:10:39;;;;;;;4.82;3.45;;;;;;;;;;5025941;28;20506;-82
2023/06/15 00:13:06;;;;;;;5.88;3.70;;;;;;;;;;5025160;28;20113;-82
2023/06/15 00:15:32;;;;;;;5.35;3.78;;;;;;;;;;5024849;28;20112;-82
2023/06/15 00:17:58;;;;;;;4.97;3.60;;;;;;;;;;5022562;28;20057;-83
2023/06/15 00:20:28;;;;;;;7.05;3.42;;;;;;;;;;5026199;28;20052;-81
2023/06/15 00:22:55;;;;;;;6.43;3.70;;;;;;;;;;5025339;28;20053;-82
2023/06/15 00:25:21;;;;;;;7.05;3.88;;;;;;;;;;5025921;28;20077;-83
2023/06/15 00:27:48;;;;;;;5.32;4.00;;;;;;;;;;5025618;28;20045;-82
2023/06/15 00:30:14;;;;;;;7.82;3.80;;;;;;;;;;5024146;28;20038;-83
2023/06/15 00:32:40;;;;;;;5.97;4.10;;;;;;;;;;5022817;28;20106;-82
2023/06/15 00:35:06;;;;;;;4.72;3.47;;;;;;;;;;5025378;28;20132;-82
2023/06/15 00:37:32;;;;;;;5.25;3.40;;;;;;;;;;5024132;28;20550;-82
2023/06/15 00:39:58;;;;;;;6.10;3.72;;;;;;;;;;5024504;28;20046;-82
2023/06/15 00:42:25;;;;;;;5.72;4.03;;;;;;;;;;5021104;28;20069;-82
2023/06/15 00:44:51;;;;;;;4.95;3.70;;;;;;;;;;5025156;28;20061;-83
2023/06/15 00:47:18;;;;;;;5.45;3.45;;;;;;;;;;5015109;28;20082;-82
2023/06/15 00:49:44;;;;;;;6.43;3.70;;;;;;;;;;5007341;28;20054;-83
2023/06/15 00:52:11;;;;;;;5.95;4.05;;;;;;;;;;5025605;28;20046;-83
2023/06/15 00:54:40;;;;;;;7.72;4.00;;;;;;;;;;5026712;28;20053;-81
2023/06/15 00:57:07;;;;;;;10.23;5.18;;;;;;;;;;5021365;28;20050;-83
2023/06/15 00:59:34;;;;;;;5.07;4.57;;;;;;;;;;5019097;28;20407;-82
2023/06/15 01:02:00;;;;;;;6.43;4.68;;;;;;;;;;5016640;28;20041;-83
2023/06/15 01:04:26;;;;;;;6.68;4.18;;;;;;;;;;5003625;28;20392;-83
2023/06/15 01:06:56;;;;;;;6.95;4.10;;;;;;;;;;5018233;28;20102;-82
2023/06/15 01:09:23;;;;;;;6.93;4.30;;;;;;;;;;5019745;28;20117;-83
2023/06/15 01:11:52;;;;;;;5.85;4.05;;;;;;;;;;5019439;28;20072;-82
2023/06/15 01:14:20;;;;;;;8.00;4.20;;;;;;;;;;5014579;28;20057;-82
2023/06/15 01:16:52;;;;;;;5.63;4.30;;;;;;;;;;5019179;28;20046;-82
2023/06/15 01:19:53;;;;;;;5.05;3.67;;;;;;;;;;5011573;28;20083;-83
2023/06/15 01:22:24;;;;;;;6.95;4.47;;;;;;;;;;5003193;28;20053;-83
2023/06/15 01:25:03;;;;;;;6.55;3.97;;;;;;;;;;5014632;28;20057;-81
2023/06/15 01:27:29;;;;;;;4.93;4.25;;;;;;;;;;5020622;28;20116;-82
2023/06/15 01:29:56;;;;;;;7.43;4.47;;;;;;;;;;5022425;28;20060;-82
2023/06/15 01:32:22;;;;;;;6.55;4.85;;;;;;;;;;5020982;28;20452;-82
2023/06/15 01:34:48;;;;;;;8.07;4.80;;;;;;;;;;5024339;28;20128;-81
2023/06/15 01:37:14;;;;;;;5.57;4.20;;;;;;;;;;5022166;28;20049;-82
2023/06/15 01:39:42;;;;;;;9.07;5.63;;;;;;;;;;5023840;28;20050;-83
2023/06/15 01:42:08;;;;;;;6.20;4.85;;;;;;;;;;5023746;28;20041;-82
2023/06/15 01:44:35;;;;;;;6.07;4.70;;;;;;;;;;5022446;28;20056;-82
2023/06/15 01:47:01;;;;;;;10.00;5.43;;;;;;;;;;5018546;28;20049;-82
2023/06/15 01:49:27;;;;;;;6.25;4.55;;;;;;;;;;5022329;28;20057;-82
2023/06/15 01:51:53;;;;;;;6.88;4.88;;;;;;;;;;5023073;28;20097;-83
2023/06/15 01:54:19;;;;;;;6.00;5.00;;;;;;;;;;5015525;28;20038;-81
2023/06/15 01:56:46;;;;;;;5.65;4.03;;;;;;;;;;5011518;28;20065;-82
2023/06/15 01:59:12;;;;;;;5.25;4.13;;;;;;;;;;5017633;28;20537;-82
2023/06/15 02:01:38;;;;;;;5.82;4.57;;;;;;;;;;5019996;28;20042;-82
2023/06/15 02:04:04;;;;;;;6.22;4.60;;;;;;;;;;5031130;28;20079;-82
2023/06/15 02:06:30;;;;;;;7.20;4.72;;;;;;;;;;5013882;28;20077;-82
2023/06/15 02:08:56;;;;;;;8.13;4.93;;;;;;;;;;5011364;28;20038;-82
2023/06/15 02:11:23;;;;;;;6.10;4.38;;;;;;;;;;5017407;28;20061;-82
2023/06/15 02:13:50;;;;;;;5.93;5.25;;;;;;;;;;5018371;28;20068;-82
2023/06/15 02:16:16;;;;;;;6.72;4.80;;;;;;;;;;5019346;28;20046;-82
2023/06/15 02:18:44;;;;;;;7.50;5.10;;;;;;;;;;5016002;28;20106;-82
2023/06/15 02:21:10;;;;;;;8.43;4.97;;;;;;;;;;5018152;28;20058;-82
2023/06/15 02:23:37;;;;;;;7.00;5.18;;;;;;;;;;5017401;28;20050;-82
2023/06/15 02:26:03;;;;;;;5.85;4.70;;;;;;;;;;5011583;28;20050;-83
2023/06/15 02:28:30;;;;;;;9.25;5.32;;;;;;;;;;5017467;28;20065;-81
2023/06/15 02:30:56;;;;;;;6.68;4.63;;;;;;;;;;5013689;28;20076;-82
2023/06/15 02:33:25;;;;;;;7.25;4.90;;;;;;;;;;4996630;28;20116;-82
2023/06/15 02:35:51;;;;;;;12.68;5.25;;;;;;;;;;5012441;28;20107;-82
2023/06/15 02:38:17;;;;;;;8.07;5.30;;;;;;;;;;4994461;28;20046;-83
2023/06/15 02:40:43;;;;;;;6.68;5.30;;;;;;;;;;5017666;28;20050;-82
2023/06/15 02:43:09;;;;;;;7.10;5.40;;;;;;;;;;5033832;28;20057;-81
2023/06/15 02:45:36;;;;;;;8.82;5.30;;;;;;;;;;5001314;28;20050;-83
2023/06/15 02:48:03;;;;;;;6.20;4.53;;;;;;;;;;5021484;28;20057;-82
2023/06/15 02:50:29;;;;;;;7.10;5.55;;;;;;;;;;5014654;28;20046;-82
2023/06/15 02:52:56;;;;;;;6.65;5.55;;;;;;;;;;5020876;28;20141;-82
2023/06/15 02:55:22;;;;;;;6.80;5.20;;;;;;;;;;5010336;28;20041;-81
2023/06/15 02:57:48;;;;;;;6.75;5.85;;;;;;;;;;5016200;28;20046;-81
2023/06/15 03:00:17;;;;;;;9.10;5.53;;;;;;;;;;5028498;28;20488;-82
2023/06/15 03:02:44;;;;;;;7.55;5.80;;;;;;;;;;5025402;28;20058;-82
2023/06/15 03:05:11;;;;;;;9.27;5.95;;;;;;;;;;5029394;28;20042;-82
2023/06/15 03:07:40;;;;;;;7.45;6.03;;;;;;;;;;5024991;28;20053;-82
2023/06/15 03:10:06;;;;;;;6.57;5.53;;;;;;;;;;5026475;28;20042;-82
2023/06/15 03:12:33;;;;;;;8.00;5.68;;;;;;;;;;5037980;28;20042;-82
2023/06/15 03:15:01;;;;;;;8.95;5.65;;;;;;;;;;5022325;28;20052;-82
2023/06/15 03:17:29;;;;;;;8.93;5.78;;;;;;;;;;5023493;28;20046;-82
2023/06/15 03:19:55;;;;;;;7.20;5.43;;;;;;;;;;5028478;28;20057;-82
2023/06/15 03:22:24;;;;;;;9.35;5.65;;;;;;;;;;5026769;28;20077;-82
2023/06/15 03:24:50;;;;;;;9.57;6.28;;;;;;;;;;5024448;28;20054;-83
2023/06/15 03:27:16;;;;;;;7.22;6.03;;;;;;;;;;5026289;28;20049;-82
2023/06/15 03:29:49;;;;;;;10.20;5.60;;;;;;;;;;5028422;28;20049;-83
2023/06/15 03:32:15;;;;;;;7.30;5.97;;;;;;;;;;5025034;28;20385;-82
2023/06/15 03:34:43;;;;;;;8.20;6.10;;;;;;;;;;5022216;28;20507;-82
2023/06/15 03:37:10;;;;;;;10.38;5.68;;;;;;;;;;5017672;28;20108;-82
2023/06/15 03:39:36;;;;;;;7.50;5.80;;;;;;;;;;5028355;28;20484;-81
2023/06/15 03:42:02;;;;;;;6.80;5.28;;;;;;;;;;5025895;28;20052;-83
2023/06/15 03:44:28;;;;;;;8.63;6.00;;;;;;;;;;5028020;28;20110;-81
2023/06/15 03:46:54;;;;;;;9.38;5.88;;;;;;;;;;5027631;28;20034;-83
2023/06/15 03:49:21;;;;;;;8.85;6.20;;;;;;;;;;5026251;28;20120;-82
2023/06/15 03:51:47;;;;;;;6.35;5.75;;;;;;;;;;5016827;28;20050;-82
2023/06/15 03:54:13;;;;;;;8.18;5.75;;;;;;;;;;5023108;28;20046;-83
2023/06/15 03:56:40;;;;;;;7.57;5.43;;;;;;;;;;5025352;28;20148;-82
2023/06/15 03:59:06;;;;;;;10.25;5.22;;;;;;;;;;5013842;28;20075;-82
2023/06/15 04:01:32;;;;;;;10.07;6.47;;;;;;;;;;5026228;28;20054;-83
2023/06/15 04:03:59;;;;;;;8.68;6.35;;;;;;;;;;5027565;28;20045;-82
2023/06/15 04:06:25;;;;;;;8.88;5.97;;;;;;;;;;5025941;28;20124;-82
2023/06/15 04:08:51;;;;;;;8.55;5.80;;;;;;;;;;5025381;28;20794;-83
2023/06/15 04:11:17;;;;;;;7.15;5.82;;;;;;;;;;5019897;28;20046;-81
2023/06/15 04:13:45;;;;;;;6.97;5.68;;;;;;;;;;5025849;28;20050;-82
2023/06/15 04:16:11;;;;;;;8.68;6.32;;;;;;;;;;5027067;28;20106;-83
2023/06/15 04:18:37;;;;;;;15.20;6.13;;;;;;;;;;5027264;28;20046;-83
2023/06/15 04:21:04;;;;;;;8.15;6.28;;;;;;;;;;5022607;28;20046;-82
2023/06/15 04:23:30;;;;;;;10.40;6.18;;;;;;;;;;5025904;28;20088;-83
2023/06/15 04:26:00;;;;;;;8.20;6.28;;;;;;;;;;5020740;28;20048;-82
2023/06/15 04:28:26;;;;;;;9.43;6.22;;;;;;;;;;5026402;28;20042;-82
2023/06/15 04:31:12;;;;;;;9.82;6.18;;;;;;;;;;5018307;28;20050;-83
2023/06/15 04:33:42;;;;;;;;;;;;;;;;;;5020926;28;20061;-83
2023/06/15 04:36:12;;;;;;;9.95;6.40;;;;;;;;;;5025870;28;19989;-82
2023/06/15 04:38:38;;;;;;;9.18;6.47;;;;;;;;;;5026586;28;20060;-83
2023/06/15 04:41:07;;;;;;;10.32;7.47;;;;;;;;;;5025067;28;20052;-82
2023/06/15 04:43:34;;;;;;;11.00;7.80;;;;;;;;;;5024269;28;20058;-83
2023/06/15 04:46:01;;;;;;;9.80;7.15;;;;;;;;;;5016143;28;20116;-82
2023/06/15 04:48:27;;;;;;;10.27;7.30;;;;;;;;;;5005416;28;20054;-83
2023/06/15 04:50:56;;;;;;;10.95;6.95;;;;;;;;;;5014670;28;20050;-82
2023/06/15 04:53:22;;;;;;;8.63;6.80;;;;;;;;;;5023849;28;20074;-82
2023/06/15 04:55:49;;;;;;;11.65;7.20;;;;;;;;;;5014783;28;20053;-82
2023/06/15 04:58:15;;;;;;;10.68;6.45;;;;;;;;;;5016496;28;20076;-83
2023/06/15 05:00:42;;;;;;;8.50;7.00;;;;;;;;;;5017034;28;20054;-83
2023/06/15 05:03:08;;;;;;;10.23;6.90;;;;;;;;;;5015959;28;20126;-82
2023/06/15 05:05:34;;;;;;;9.93;6.03;;;;;;;;;;5015409;28;20041;-83
2023/06/15 05:08:01;;;;;;;8.43;5.80;;;;;;;;;;5015609;28;20488;-83
2023/06/15 05:10:27;;;;;;;7.93;5.95;;;;;;;;;;5026937;28;20092;-83
2023/06/15 05:12:53;;;;;;;8.73;6.35;;;;;;;;;;5014322;28;20041;-82
2023/06/15 05:15:20;;;;;;;11.65;6.10;;;;;;;;;;5014400;28;20045;-83
2023/06/15 05:17:46;;;;;;;7.78;6.00;;;;;;;;;;5020725;28;20397;-83
2023/06/15 05:20:14;;;;;;;9.15;5.50;;;;;;;;;;5003021;28;20054;-82
2023/06/15 05:22:40;;;;;;;8.63;5.60;;;;;;;;;;5014537;28;20056;-82
2023/06/15 05:25:06;;;;;;;8.30;5.45;;;;;;;;;;5018238;28;20092;-82
2023/06/15 05:27:35;;;;;;;7.38;5.32;;;;;;;;;;5017450;28;20400;-82
2023/06/15 05:30:02;;;;;;;9.15;5.40;;;;;;;;;;5006884;28;20093;-83
2023/06/15 05:32:28;;;;;;;8.32;5.20;;;;;;;;;;4997949;28;20129;-84
2023/06/15 05:34:54;;;;;;;7.07;5.10;;;;;;;;;;5014262;28;20076;-83
2023/06/15 05:37:20;;;;;;;6.25;4.95;;;;;;;;;;5021946;28;20068;-82
2023/06/15 05:39:46;;;;;;;11.07;4.90;;;;;;;;;;5022132;28;20037;-83
2023/06/15 05:42:12;;;;;;;6.65;4.80;;;;;;;;;;5025846;28;20045;-83
2023/06/15 05:44:38;;;;;;;5.60;4.50;;;;;;;;;;5013627;28;20059;-83
2023/06/15 05:47:04;;;;;;;5.53;4.45;;;;;;;;;;5016821;28;20046;-83
2023/06/15 05:49:31;;;;;;;5.13;4.13;;;;;;;;;;5011544;28;20049;-83
2023/06/15 05:51:57;;;;;;;8.52;4.53;;;;;;;;;;5018421;28;20076;-83
2023/06/15 05:54:23;;;;;;;6.93;4.63;;;;;;;;;;5024370;28;20038;-83
2023/06/15 05:56:50;;;;;;;6.13;4.40;;;;;;;;;;5010309;28;20046;-83
2023/06/15 05:59:16;;;;;;;7.80;4.40;;;;;;;;;;5018286;28;20049;-83
2023/06/15 06:01:42;;;;;;;7.22;4.55;;;;;;;;;;5017306;28;20096;-84
2023/06/15 06:04:08;;;;;;;7.38;4.07;;;;;;;;;;5014034;28;20052;-85
2023/06/15 06:06:35;;;;;;;6.50;4.20;;;;;;;;;;5011782;28;20050;-85
2023/06/15 06:09:01;;;;;;;6.13;3.95;;;;;;;;;;5011876;28;20073;-85
2023/06/15 06:11:27;;;;;;;7.10;3.90;;;;;;;;;;5013271;28;20050;-85
2023/06/15 06:13:54;;;;;;;6.15;4.22;;;;;;;;;;5012349;28;20057;-84
2023/06/15 06:16:20;;;;;;;4.75;3.65;;;;;;;;;;5019351;28;20045;-83
2023/06/15 06:18:46;;;;;;;6.70;4.00;;;;;;;;;;5018722;28;20054;-84
2023/06/15 06:21:12;;;;;;;7.43;4.57;;;;;;;;;;5005490;28;20046;-83
2023/06/15 06:23:39;;;;;;;6.47;4.18;;;;;;;;;;5020007;28;20046;-83
2023/06/15 06:26:05;;;;;;;5.00;3.60;;;;;;;;;;5017226;28;20038;-83
2023/06/15 06:28:31;;;;;;;6.07;3.60;;;;;;;;;;5020313;28;20042;-84
2023/06/15 06:30:57;;;;;;;6.55;3.30;;;;;;;;;;5015262;28;20443;-84
2023/06/15 06:33:23;;;;;;;7.07;3.50;;;;;;;;;;5008331;28;20050;-82
2023/06/15 06:35:49;;;;;;;5.38;3.40;;;;;;;;;;5009469;28;20041;-80
2023/06/15 06:38:16;;;;;;;5.25;3.20;;;;;;;;;;5020760;28;20041;-80
2023/06/15 06:40:42;;;;;;;4.40;3.20;;;;;;;;;;5019323;28;20073;-80
2023/06/15 06:43:08;;;;;;;4.75;3.60;;;;;;;;;;5016681;28;20054;-79
2023/06/15 06:45:34;;;;;;;5.53;3.05;;;;;;;;;;5020703;28;20133;-80
2023/06/15 06:48:00;;;;;;;4.60;3.25;;;;;;;;;;5018298;28;20121;-80
2023/06/15 06:50:26;;;;;;;4.85;3.53;;;;;;;;;;5017450;28;20050;-80
2023/06/15 06:52:53;;;;;;;4.45;3.30;;;;;;;;;;5018676;28;20120;-79
2023/06/15 06:55:19;;;;;;;32.25;5.60;;;;;;;;;;5022696;28;20377;-81
2023/06/15 06:57:45;;;;;;;11.00;3.97;;;;;;;;;;5022245;28;20054;-80
2023/06/15 07:00:11;;;;;;;122.00;15.27;;;;;;;;;;5020298;28;20097;-81
2023/06/15 07:02:37;;;;;;;19.08;4.03;;;;;;;;;;5020380;28;20136;-80
2023/06/15 07:05:04;;;;;;;241.13;21.10;;;;;;;;;;5015153;28;20050;-81
2023/06/15 07:07:30;;;;;;;5.32;3.30;;;;;;;;;;5016766;28;20084;-81
2023/06/15 07:09:56;;;;;;;7.53;3.42;;;;;;;;;;5021013;28;20080;-86
2023/06/15 07:12:22;;;;;;;9.45;3.70;;;;;;;;;;5015881;28;20091;-86
2023/06/15 07:14:48;;;;;;;5.78;3.45;;;;;;;;;;5018906;28;20046;-83
2023/06/15 07:17:14;;;;;;;27.33;4.88;;;;;;;;;;4985725;28;20053;-82
2023/06/15 07:19:40;;;;;;;6.03;3.25;;;;;;;;;;5017342;28;20041;-83
2023/06/15 07:22:07;;;;;;;3.80;2.95;;;;;;;;;;5031977;28;20081;-82
2023/06/15 07:24:35;;;;;;;4.97;3.60;;;;;;;;;;5018064;28;20464;-83
2023/06/15 07:27:01;;;;;;;4.30;3.17;;;;;;;;;;5030874;28;20034;-82
2023/06/15 07:29:28;;;;;;;5.32;3.10;;;;;;;;;;5022582;28;20060;-83
2023/06/15 07:31:54;;;;;;;4.43;2.97;;;;;;;;;;5024455;28;20049;-83
2023/06/15 07:34:20;;;;;;;9.20;3.28;;;;;;;;;;5013694;28;20378;-83
2023/06/15 07:36:46;;;;;;;7.10;3.13;;;;;;;;;;5011308;28;20045;-83
2023/06/15 07:39:13;;;;;;;6.30;3.30;;;;;;;;;;5023533;28;20034;-83
2023/06/15 07:41:39;;;;;;;4.25;3.10;;;;;;;;;;5024828;28;20171;-86
2023/06/15 07:44:11;;;;;;;5.88;3.30;;;;;;;;;;5005838;28;20062;-81
2023/06/15 07:46:38;;;;;;;5.05;3.33;;;;;;;;;;5021007;28;20085;-80
2023/06/15 07:49:04;;;;;;;6.45;3.50;;;;;;;;;;5015662;28;20041;-80
2023/06/15 07:51:30;;;;;;;5.28;3.17;;;;;;;;;;5020110;28;20042;-80
2023/06/15 07:53:56;;;;;;;5.00;3.05;;;;;;;;;;5029837;28;20049;-82
2023/06/15 07:56:22;;;;;;;3.50;3.08;;;;;;;;;;5030810;28;20056;-80
2023/06/15 07:58:48;;;;;;;3.88;3.22;;;;;;;;;;5029124;28;20101;-80
2023/06/15 08:01:14;;;;;;;4.47;3.22;;;;;;;;;;5028856;28;20046;-80
2023/06/15 08:03:40;;;;;;;5.90;3.42;;;;;;;;;;5030934;28;20050;-80
2023/06/15 08:06:06;;;;;;;5.93;3.60;;;;;;;;;;5028673;28;20068;-80
2023/06/15 08:08:33;;;;;;;7.13;4.07;;;;;;;;;;5028217;28;20050;-80
2023/06/15 08:11:00;;;;;;;4.57;3.20;;;;;;;;;;5024377;28;20050;-80
2023/06/15 08:13:26;;;;;;;4.68;3.25;;;;;;;;;;5023924;28;20105;-80
2023/06/15 08:15:52;;;;;;;5.53;3.35;;;;;;;;;;5020697;28;20051;-81
2023/06/15 08:18:18;;;;;;;3.50;2.88;;;;;;;;;;5023612;28;20049;-81
2023/06/15 08:20:44;;;;;;;7.13;3.45;;;;;;;;;;5024753;28;20042;-81
2023/06/15 08:23:10;;;;;;;5.85;3.10;;;;;;;;;;5024776;28;20530;-80
2023/06/15 08:25:36;;;;;;;4.47;3.15;;;;;;;;;;5026704;28;20052;-80
2023/06/15 08:28:02;;;;;;;3.70;3.10;;;;;;;;;;5023687;28;20476;-80
2023/06/15 08:30:28;;;;;;;3.97;2.92;;;;;;;;;;5018788;28;20039;-82
2023/06/15 08:32:55;;;;;;;4.72;3.08;;;;;;;;;;5020876;28;20403;-81
2023/06/15 08:35:21;;;;;;;4.93;3.42;;;;;;;;;;5023103;28;20832;-82
2023/06/15 08:37:47;;;;;;;5.20;3.13;;;;;;;;;;5022231;28;20483;-81
2023/06/15 08:40:13;;;;;;;4.72;2.95;;;;;;;;;;5022997;28;20068;-81
2023/06/15 08:42:40;;;;;;;4.38;2.88;;;;;;;;;;5024493;28;20696;-81
2023/06/15 08:45:07;;;;;;;5.70;3.10;;;;;;;;;;5020963;28;20041;-83
2023/06/15 08:47:34;;;;;;;7.25;3.22;;;;;;;;;;5020542;28;20057;-81
2023/06/15 08:50:01;;;;;;;5.95;3.13;;;;;;;;;;5033166;28;20050;-81
2023/06/15 08:52:28;;;;;;;5.15;3.03;;;;;;;;;;5020380;28;20121;-81
2023/06/15 08:54:56;;;;;;;3.85;3.10;;;;;;;;;;5025480;28;20072;-81
2023/06/15 08:57:22;;;;;;;4.50;3.33;;;;;;;;;;5024991;28;20042;-81
2023/06/15 08:59:48;;;;;;;5.13;3.47;;;;;;;;;;5026090;28;20049;-84
2023/06/15 09:02:21;;;;;;;8.63;3.83;;;;;;;;;;5025553;28;20056;-82
2023/06/15 09:04:51;;;;;;;4.57;3.20;;;;;;;;;;5020866;28;20046;-83
2023/06/15 09:07:20;;;;;;;6.10;3.15;;;;;;;;;;5018302;28;20131;-81
2023/06/15 09:10:05;;;;;;;4.68;2.95;;;;;;;;;;5015628;28;20428;-82
2023/06/15 09:12:31;;;;;;;4.90;3.10;;;;;;;;;;5018784;28;20045;-81
2023/06/15 09:14:57;;;;;;;4.75;3.35;;;;;;;;;;5014734;28;20042;-82
2023/06/15 09:17:27;;;;;;;6.07;3.38;;;;;;;;;;5009875;28;20060;-83
2023/06/15 09:19:57;;;;;;;6.13;2.92;;;;;;;;;;5036226;28;20121;-82
2023/06/15 09:22:23;;;;;;;4.50;3.15;;;;;;;;;;5031259;28;20046;-81
2023/06/15 09:24:49;;;;;;;8.18;3.33;;;;;;;;;;5024806;28;20049;-81
2023/06/15 09:27:15;;;;;;;4.53;3.38;;;;;;;;;;5023701;28;20054;-80
2023/06/15 09:30:04;;;;;;;4.00;3.40;;;;;;;;;;5029501;28;20072;-82
2023/06/15 09:32:30;;;;;;;4.93;3.53;;;;;;;;;;5025450;28;20100;-81
2023/06/15 09:34:59;;;;;;;3.92;3.00;;;;;;;;;;5027753;28;20045;-81
2023/06/15 09:37:27;;;;;;;4.88;3.22;;;;;;;;;;5028269;28;20046;-81
2023/06/15 09:39:53;;;;;;;4.55;3.28;;;;;;;;;;5017121;28;20800;-81
2023/06/15 09:42:27;;;;;;;6.75;3.22;;;;;;;;;;5025979;28;20046;-81
2023/06/15 09:44:57;;;;;;;8.00;3.50;;;;;;;;;;5021271;28;20050;-81
2023/06/15 09:47:32;;;;;;;6.93;3.10;;;;;;;;;;5005129;28;20102;-85
2023/06/15 09:49:59;;;;;;;4.30;3.22;;;;;;;;;;5021617;28;20056;-81
2023/06/15 09:52:25;;;;;;;8.23;3.13;;;;;;;;;;5023763;28;20046;-81
2023/06/15 09:54:53;;;;;;;5.00;3.05;;;;;;;;;;5023484;28;20412;-81
2023/06/15 09:57:20;;;;;;;5.13;3.10;;;;;;;;;;4997084;28;20121;-84
2023/06/15 09:59:49;;;;;;;5.70;3.40;;;;;;;;;;5016569;28;20412;-83
2023/06/15 10:02:19;;;;;;;6.15;3.00;;;;;;;;;;5020118;28;20514;-80
2023/06/15 10:04:47;;;;;;;6.88;3.15;;;;;;;;;;5019720;28;20046;-80
2023/06/15 10:07:17;;;;;;;8.43;3.50;;;;;;;;;;5023185;28;20047;-79
2023/06/15 10:09:46;;;;;;;4.25;3.08;;;;;;;;;;5023130;28;20041;-79
2023/06/15 10:12:13;;;;;;;5.10;3.08;;;;;;;;;;5015279;28;20053;-79
2023/06/15 10:14:45;;;;;;;3.85;3.10;;;;;;;;;;5031593;28;20083;-79
2023/06/15 10:17:13;;;;;;;5.55;3.10;;;;;;;;;;5002029;28;20078;-79
2023/06/15 10:19:43;;;;;;;5.60;3.20;;;;;;;;;;5011188;28;20053;-79
2023/06/15 10:22:12;;;;;;;8.05;3.25;;;;;;;;;;5022791;28;20052;-79
2023/06/15 10:24:38;;;;;;;5.85;3.17;;;;;;;;;;5019830;28;20088;-80
2023/06/15 10:27:06;;;;;;;3.88;3.20;;;;;;;;;;5022594;28;20056;-81
2023/06/15 10:29:38;;;;;;;9.27;3.30;;;;;;;;;;5022923;28;20046;-81
2023/06/15 10:32:04;;;;;;;4.15;2.90;;;;;;;;;;5012291;28;20120;-81
2023/06/15 10:34:39;;;;;;;4.70;3.55;;;;;;;;;;5009528;28;20081;-80
2023/06/15 10:37:08;;;;;;;5.28;3.15;;;;;;;;;;5020694;28;20084;-80
2023/06/15 10:39:41;;;;;;;6.53;3.45;;;;;;;;;;5030828;28;20075;-80
2023/06/15 10:42:08;;;;;;;5.90;3.10;;;;;;;;;;5042443;28;20057;-79
2023/06/15 10:44:34;;;;;;;4.32;3.42;;;;;;;;;;5027550;28;20054;-80
2023/06/15 10:47:30;;;;;;;4.53;3.05;;;;;;;;;;5021772;28;20131;-79
2023/06/15 10:49:56;;;;;;;6.15;3.40;;;;;;;;;;5019309;28;20042;-79
2023/06/15 10:52:22;;;;;;;4.57;3.15;;;;;;;;;;4999536;28;20045;-79
2023/06/15 10:54:49;;;;;;;5.78;3.40;;;;;;;;;;5016449;28;20046;-80
2023/06/15 10:57:28;;;;;;;3.65;2.85;;;;;;;;;;5017588;28;20491;-79
2023/06/15 10:59:56;;;;;;;4.43;2.83;;;;;;;;;;5009194;28;20089;-79
2023/06/15 11:02:25;;;;;;;4.00;3.10;;;;;;;;;;5016995;28;20060;-79
2023/06/15 11:04:52;;;;;;;4.35;2.90;;;;;;;;;;5017076;28;20037;-79
2023/06/15 11:07:27;;;;;;;5.88;3.30;;;;;;;;;;5017726;28;20038;-80
2023/06/15 11:09:56;;;;;;;3.95;2.63;;;;;;;;;;5018364;28;20045;-79
2023/06/15 11:12:35;;;;;;;3.60;2.97;;;;;;;;;;5017136;28;20045;-81
2023/06/15 11:15:05;;;;;;;3.35;3.00;;;;;;;;;;5017950;28;20065;-80
2023/06/15 11:17:31;;;;;;;6.95;3.42;;;;;;;;;;5018953;28;20069;-79
2023/06/15 11:19:57;;;;;;;4.30;2.90;;;;;;;;;;5019772;28;20053;-79
2023/06/15 11:22:27;;;;;;;4.32;3.10;;;;;;;;;;5021337;28;20038;-80
2023/06/15 11:25:03;;;;;;;4.68;3.20;;;;;;;;;;5019633;28;20492;-80
2023/06/15 11:27:29;;;;;;;4.43;3.03;;;;;;;;;;5012350;28;20049;-80
2023/06/15 11:29:55;;;;;;;5.57;2.95;;;;;;;;;;5015928;28;20041;-79
2023/06/15 11:32:26;;;;;;;3.05;2.75;;;;;;;;;;5023445;28;20042;-80
2023/06/15 11:34:56;;;;;;;4.28;3.30;;;;;;;;;;5008232;28;20050;-80
2023/06/15 11:37:22;;;;;;;4.80;3.10;;;;;;;;;;5022513;28;20069;-81
2023/06/15 11:39:48;;;;;;;4.93;3.10;;;;;;;;;;5005609;28;20042;-81
2023/06/15 11:42:15;;;;;;;4.68;3.17;;;;;;;;;;5020627;28;20057;-80
2023/06/15 11:44:41;;;;;;;4.90;3.00;;;;;;;;;;5020088;28;20056;-80
2023/06/15 11:47:12;;;;;;;6.05;3.40;;;;;;;;;;5019996;28;20042;-80
2023/06/15 11:49:38;;;;;;;3.83;3.42;;;;;;;;;;5017909;28;20045;-80
2023/06/15 11:52:04;;;;;;;4.43;3.13;;;;;;;;;;5026753;28;20046;-80
2023/06/15 11:54:31;;;;;;;4.97;3.40;;;;;;;;;;5025343;28;20034;-80
2023/06/15 11:56:57;;;;;;;5.22;3.15;;;;;;;;;;5025876;28;20050;-80
2023/06/15 11:59:24;;;;;;;3.55;3.05;;;;;;;;;;5027076;28;20048;-81
2023/06/15 12:01:51;;;;;;;8.55;3.38;;;;;;;;;;5027319;28;20053;-80
2023/06/15 12:04:17;;;;;;;8.32;3.60;;;;;;;;;;5028968;28;20045;-80
2023/06/15 12:06:44;;;;;;;4.75;3.00;;;;;;;;;;5018107;28;20125;-80
2023/06/15 12:09:11;;;;;;;7.05;3.50;;;;;;;;;;5026815;28;20046;-80
2023/06/15 12:11:37;;;;;;;6.05;3.42;;;;;;;;;;5026237;28;20480;-80
2023/06/15 12:14:07;;;;;;;6.43;3.10;;;;;;;;;;5025826;28;20392;-80
2023/06/15 12:16:34;;;;;;;9.90;3.40;;;;;;;;;;5021002;28;20097;-80
2023/06/15 12:19:01;;;;;;;4.63;3.50;;;;;;;;;;5023658;28;20050;-80
2023/06/15 12:21:30;;;;;;;5.00;3.25;;;;;;;;;;5022911;28;20142;-80
2023/06/15 12:23:56;;;;;;;6.07;3.10;;;;;;;;;;5023179;28;20050;-80
2023/06/15 12:26:30;;;;;;;3.63;3.00;;;;;;;;;;5023131;28;20058;-80
2023/06/15 12:28:56;;;;;;;3.75;3.10;;;;;;;;;;5018107;28;20046;-80
2023/06/15 12:31:22;;;;;;;4.80;2.80;;;;;;;;;;5017901;28;20047;-80
2023/06/15 12:33:51;;;;;;;7.75;3.13;;;;;;;;;;5029837;28;20041;-80
2023/06/15 12:36:20;;;;;;;3.90;3.20;;;;;;;;;;5031713;28;20049;-80
2023/06/15 12:38:48;;;;;;;4.88;3.20;;;;;;;;;;5021264;28;20046;-82
2023/06/15 12:41:15;;;;;;;4.35;3.03;;;;;;;;;;5022177;28;20068;-81
2023/06/15 12:43:42;;;;;;;5.03;3.15;;;;;;;;;;5020745;28;20104;-84
2023/06/15 12:46:09;;;;;;;4.93;2.80;;;;;;;;;;5013412;28;20054;-81
2023/06/15 12:48:35;;;;;;;4.88;3.22;;;;;;;;;;5024114;28;20504;-80
2023/06/15 12:51:02;;;;;;;4.72;3.08;;;;;;;;;;5023533;28;20046;-80
2023/06/15 12:53:28;;;;;;;4.28;3.10;;;;;;;;;;5024321;28;20049;-80
2023/06/15 12:55:54;;;;;;;3.53;2.90;;;;;;;;;;5038155;28;20045;-80
2023/06/15 12:58:20;;;;;;;6.55;3.10;;;;;;;;;;5028954;28;20084;-80
2023/06/15 13:00:46;;;;;;;3.78;2.80;;;;;;;;;;5026839;28;20042;-80
2023/06/15 13:03:12;;;;;;;4.80;3.00;;;;;;;;;;5025944;28;20084;-80
2023/06/15 13:05:41;;;;;;;5.13;3.33;;;;;;;;;;5022649;28;20074;-80
2023/06/15 13:08:08;;;;;;;6.78;3.22;;;;;;;;;;5022753;28;20046;-83
2023/06/15 13:10:34;;;;;;;28.15;4.13;;;;;;;;;;5012200;28;20128;-81
2023/06/15 13:13:01;;;;;;;4.80;2.97;;;;;;;;;;5023547;28;20050;-82
2023/06/15 13:15:28;;;;;;;5.28;3.20;;;;;;;;;;5024972;28;20061;-82
2023/06/15 13:17:54;;;;;;;6.25;3.13;;;;;;;;;;5020376;28;20046;-82
2023/06/15 13:20:21;;;;;;;7.50;3.00;;;;;;;;;;5012780;28;20069;-82
2023/06/15 13:22:47;;;;;;;5.55;3.05;;;;;;;;;;5016682;28;20100;-82
2023/06/15 13:25:13;;;;;;;4.60;3.25;;;;;;;;;;5007280;28;20382;-85
2023/06/15 13:27:40;;;;;;;5.07;3.15;;;;;;;;;;5020303;28;20069;-83
2023/06/15 13:30:08;;;;;;;4.28;3.10;;;;;;;;;;5016797;28;20041;-83
2023/06/15 13:32:35;;;;;;;4.95;2.90;;;;;;;;;;5025018;28;20041;-83
2023/06/15 13:35:02;;;;;;;6.63;3.22;;;;;;;;;;5024610;28;20053;-84
2023/06/15 13:37:28;;;;;;;3.83;2.83;;;;;;;;;;5017093;28;20060;-83
2023/06/15 13:39:54;;;;;;;3.25;2.70;;;;;;;;;;5021771;28;20053;-83
2023/06/15 13:42:20;;;;;;;5.63;2.78;;;;;;;;;;5022563;28;20057;-83
2023/06/15 13:44:46;;;;;;;5.47;3.20;;;;;;;;;;5019192;28;20053;-83
2023/06/15 13:47:14;;;;;;;5.10;2.88;;;;;;;;;;5019597;28;20127;-82
2023/06/15 13:49:43;;;;;;;5.72;3.20;;;;;;;;;;5019808;28;20038;-84
2023/06/15 13:52:09;;;;;;;5.85;3.20;;;;;;;;;;5020011;28;20048;-83
2023/06/15 13:54:36;;;;;;;7.78;3.40;;;;;;;;;;5020635;28;20053;-81
2023/06/15 13:57:02;;;;;;;4.03;2.80;;;;;;;;;;5019101;28;20049;-83
2023/06/15 13:59:30;;;;;;;10.27;3.47;;;;;;;;;;5028761;28;20045;-82
2023/06/15 14:01:56;;;;;;;6.35;3.10;;;;;;;;;;5022105;28;20532;-82
2023/06/15 14:04:22;;;;;;;5.22;3.05;;;;;;;;;;5021708;28;20049;-83
2023/06/15 14:06:49;;;;;;;7.53;2.95;;;;;;;;;;5020250;28;20444;-83
2023/06/15 14:09:15;;;;;;;4.65;3.25;;;;;;;;;;5027525;28;20050;-83
2023/06/15 14:11:41;;;;;;;4.38;2.90;;;;;;;;;;5019931;28;20045;-82
2023/06/15 14:14:07;;;;;;;5.13;3.00;;;;;;;;;;5020568;28;20050;-82
2023/06/15 14:16:33;;;;;;;5.10;3.15;;;;;;;;;;5018851;28;20042;-82
2023/06/15 14:18:59;;;;;;;5.25;2.83;;;;;;;;;;5019181;28;20121;-82
2023/06/15 14:21:25;;;;;;;5.53;3.10;;;;;;;;;;5019619;28;20061;-82
2023/06/15 14:23:51;;;;;;;5.57;3.13;;;;;;;;;;5020134;28;20037;-82
2023/06/15 14:26:17;;;;;;;3.58;3.00;;;;;;;;;;5019780;28;20141;-83
2023/06/15 14:28:43;;;;;;;5.82;3.20;;;;;;;;;;5021784;28;20047;-82
2023/06/15 14:31:09;;;;;;;4.68;2.95;;;;;;;;;;5020449;28;20084;-82
2023/06/15 14:33:35;;;;;;;6.28;2.83;;;;;;;;;;5018487;28;20053;-83
2023/06/15 14:36:01;;;;;;;3.50;2.65;;;;;;;;;;5000530;28;20058;-83
2023/06/15 14:38:28;;;;;;;5.15;3.00;;;;;;;;;;5034478;28;20513;-83
2023/06/15 14:40:54;;;;;;;5.18;2.95;;;;;;;;;;5019837;28;20077;-83
2023/06/15 14:43:21;;;;;;;3.92;2.70;;;;;;;;;;5017886;28;20065;-83